createdAt,value
2018-07-04T00:00:57.793Z,4.40
2018-07-04T00:03:37.506Z,4.30
2018-07-04T00:06:17.259Z,4.37
2018-07-04T00:08:56.788Z,4.37
2018-07-04T00:11:36.306Z,4.55
2018-07-04T00:14:15.846Z,4.40
2018-07-04T00:16:55.617Z,4.67
2018-07-04T00:19:35.122Z,4.67
2018-07-04T00:22:15.114Z,4.67
2018-07-04T00:24:54.830Z,4.23
2018-07-04T00:27:34.390Z,4.80
2018-07-04T00:30:14.350Z,4.40
2018-07-04T00:32:54.193Z,4.73
2018-07-04T00:35:33.725Z,4.30
2018-07-04T00:38:13.296Z,4.80
2018-07-04T00:40:53.052Z,4.60
2018-07-04T00:43:32.874Z,4.30
2018-07-04T00:46:12.366Z,4.77
2018-07-04T00:48:52.035Z,5.00
2018-07-04T00:51:31.667Z,4.40
2018-07-04T00:54:11.210Z,5.13
2018-07-04T00:56:51.174Z,4.40
2018-07-04T00:59:30.785Z,4.43
2018-07-04T01:02:10.478Z,4.30
2018-07-04T01:04:50.210Z,4.90
2018-07-04T01:07:29.782Z,4.97
2018-07-04T01:10:09.527Z,5.43
2018-07-04T01:12:49.101Z,5.50
2018-07-04T01:15:29.102Z,4.20
2018-07-04T01:18:08.770Z,5.77
2018-07-04T01:20:53.774Z,5.30
2018-07-04T01:23:33.550Z,5.70
2018-07-04T01:26:13.185Z,5.50
2018-07-04T01:28:52.832Z,5.60
2018-07-04T01:31:32.690Z,6.37
2018-07-04T01:34:12.184Z,5.97
2018-07-04T01:36:51.866Z,5.60
2018-07-04T01:39:31.594Z,5.43
2018-07-04T01:42:11.158Z,6.07
2018-07-04T01:44:50.893Z,6.03
2018-07-04T01:47:30.957Z,6.77
2018-07-04T01:50:10.659Z,5.93
2018-07-04T01:52:50.071Z,6.03
2018-07-04T01:55:29.722Z,6.10
2018-07-04T01:58:09.622Z,5.83
2018-07-04T02:00:49.398Z,6.20
2018-07-04T02:03:28.797Z,6.80
2018-07-04T02:06:08.364Z,7.03
2018-07-04T02:08:47.857Z,7.03
2018-07-04T02:11:27.514Z,6.63
2018-07-04T02:14:07.230Z,6.67
2018-07-04T02:16:46.840Z,6.63
2018-07-04T02:19:26.470Z,6.37
2018-07-04T02:22:06.164Z,6.70
2018-07-04T02:24:45.716Z,7.03
2018-07-04T02:27:25.298Z,7.53
2018-07-04T02:30:05.307Z,6.57
2018-07-04T02:32:44.882Z,6.83
2018-07-04T02:35:24.468Z,7.03
2018-07-04T02:38:04.068Z,7.43
2018-07-04T02:40:43.815Z,6.37
2018-07-04T02:43:23.424Z,7.97
2018-07-04T02:46:03.407Z,8.05
2018-07-04T02:48:43.042Z,7.57
2018-07-04T02:51:22.731Z,7.73
2018-07-04T02:54:02.235Z,7.90
2018-07-04T02:56:41.782Z,7.57
2018-07-04T02:59:21.413Z,7.87
2018-07-04T03:02:01.387Z,7.77
2018-07-04T03:04:40.994Z,8.17
2018-07-04T03:07:20.687Z,7.73
2018-07-04T03:10:00.183Z,7.30
2018-07-04T03:12:39.965Z,8.10
2018-07-04T03:15:19.711Z,8.00
2018-07-04T03:17:59.150Z,7.87
2018-07-04T03:20:38.871Z,7.83
2018-07-04T03:23:18.915Z,8.07
2018-07-04T03:25:58.498Z,8.23
2018-07-04T03:28:38.210Z,7.70
2018-07-04T03:31:17.695Z,7.70
2018-07-04T03:33:57.598Z,7.27
2018-07-04T03:36:37.237Z,7.33
2018-07-04T03:39:16.667Z,7.90
2018-07-04T03:41:56.455Z,7.93
2018-07-04T03:44:36.200Z,8.90
2018-07-04T03:47:15.878Z,8.33
2018-07-04T03:49:49.528Z,8.00
2018-07-04T03:52:29.125Z,8.10
2018-07-04T03:55:08.914Z,7.30
2018-07-04T03:57:48.666Z,8.90
2018-07-04T04:00:28.311Z,8.53
2018-07-04T04:03:07.739Z,8.37
2018-07-04T04:05:47.678Z,7.83
2018-07-04T04:08:27.282Z,8.85
2018-07-04T04:11:00.721Z,8.37
2018-07-04T04:13:40.530Z,7.30
2018-07-04T04:16:20.240Z,7.10
2018-07-04T04:18:59.743Z,7.70
2018-07-04T04:21:39.718Z,6.90
2018-07-04T04:24:19.469Z,7.70
2018-07-04T04:26:59.068Z,7.63
2018-07-04T04:29:38.558Z,7.83
2018-07-04T04:32:18.474Z,7.87
2018-07-04T04:34:58.118Z,7.40
2018-07-04T04:37:37.696Z,7.43
2018-07-04T04:40:17.322Z,7.60
2018-07-04T04:42:57.050Z,7.30
2018-07-04T04:45:36.827Z,7.83
2018-07-04T04:48:16.390Z,7.80
2018-07-04T04:50:49.891Z,8.00
2018-07-04T04:53:29.682Z,7.20
2018-07-04T04:56:09.359Z,7.13
2018-07-04T04:58:48.974Z,6.90
2018-07-04T05:01:28.586Z,7.70
2018-07-04T05:04:08.390Z,7.60
2018-07-04T05:06:48.114Z,7.57
2018-07-04T05:09:28.197Z,7.40
2018-07-04T05:12:07.598Z,8.20
2018-07-04T05:14:47.352Z,8.37
2018-07-04T05:17:27.264Z,8.07
2018-07-04T05:20:06.843Z,9.13
2018-07-04T05:22:46.468Z,8.30
2018-07-04T05:25:26.340Z,8.50
2018-07-04T05:28:05.804Z,9.93
2018-07-04T05:30:45.330Z,9.50
2018-07-04T05:33:24.742Z,8.73
2018-07-04T05:36:04.694Z,9.43
2018-07-04T05:38:44.291Z,9.23
2018-07-04T05:41:23.646Z,8.53
2018-07-04T05:44:03.206Z,8.67
2018-07-04T05:46:43.270Z,8.90
2018-07-04T05:49:22.958Z,8.70
2018-07-04T05:52:02.521Z,8.67
2018-07-04T05:54:42.259Z,9.33
2018-07-04T05:57:15.918Z,9.27
2018-07-04T05:59:55.647Z,7.93
2018-07-04T06:02:35.291Z,9.20
2018-07-04T06:05:14.923Z,8.20
2018-07-04T06:07:54.574Z,8.43
2018-07-04T06:10:34.126Z,7.50
2018-07-04T06:13:13.675Z,9.40
2018-07-04T06:15:53.434Z,9.07
2018-07-04T06:18:32.970Z,8.70
2018-07-04T06:21:12.662Z,9.03
2018-07-04T06:23:52.545Z,8.47
2018-07-04T06:26:32.085Z,8.77
2018-07-04T06:29:11.930Z,9.40
2018-07-04T06:31:51.503Z,8.40
2018-07-04T06:34:31.525Z,9.83
2018-07-04T06:37:11.254Z,9.43
2018-07-04T06:39:38.440Z,8.57
2018-07-04T06:42:05.594Z,9.27
2018-07-04T06:44:32.726Z,9.17
2018-07-04T06:46:59.882Z,9.57
2018-07-04T06:49:27.043Z,8.93
2018-07-04T06:51:54.230Z,9.77
2018-07-04T06:54:21.772Z,8.93
2018-07-04T06:56:48.914Z,8.47
2018-07-04T06:59:16.167Z,8.33
2018-07-04T07:01:43.307Z,9.60
2018-07-04T07:04:22.948Z,8.63
2018-07-04T07:07:02.589Z,7.67
2018-07-04T07:09:42.106Z,8.00
2018-07-04T07:12:21.808Z,8.03
2018-07-04T07:15:01.425Z,7.27
2018-07-04T07:17:40.979Z,7.97
2018-07-04T07:20:20.929Z,7.20
2018-07-04T07:23:00.563Z,7.30
2018-07-04T07:25:40.283Z,8.37
2018-07-04T07:28:20.048Z,7.17
2018-07-04T07:31:00.075Z,6.58
2018-07-04T07:33:39.758Z,7.23
2018-07-04T07:36:19.453Z,7.23
2018-07-04T07:38:59.005Z,6.20
2018-07-04T07:41:38.950Z,5.90
2018-07-04T07:44:18.287Z,5.80
2018-07-04T07:46:57.986Z,5.85
2018-07-04T07:49:37.468Z,6.20
2018-07-04T07:52:17.107Z,5.70
2018-07-04T07:54:56.598Z,6.58
2018-07-04T07:57:36.199Z,5.42
2018-07-04T08:00:15.764Z,5.65
2018-07-04T08:02:58.318Z,5.08
2018-07-04T08:05:37.894Z,5.45
2018-07-04T08:08:17.537Z,5.33
2018-07-04T08:10:57.091Z,4.75
2018-07-04T08:13:36.949Z,4.90
2018-07-04T08:16:16.527Z,4.35
2018-07-04T08:18:56.704Z,4.47
2018-07-04T08:21:36.371Z,4.55
2018-07-04T08:24:16.185Z,4.30
2018-07-04T08:26:55.837Z,4.40
2018-07-04T08:29:35.430Z,4.58
2018-07-04T08:32:15.341Z,4.60
2018-07-04T08:34:54.990Z,4.87
2018-07-04T08:37:34.809Z,4.80
2018-07-04T08:41:18.028Z,5.65
2018-07-04T08:43:57.543Z,3.83
2018-07-04T08:46:37.635Z,3.67
2018-07-04T08:49:17.059Z,3.90
2018-07-04T08:51:56.607Z,5.00
2018-07-04T08:54:36.306Z,4.12
2018-07-04T08:57:15.942Z,3.70
2018-07-04T08:59:55.455Z,3.50
2018-07-04T09:02:35.099Z,3.70
2018-07-04T09:05:14.623Z,3.95
2018-07-04T09:07:55.542Z,3.40
2018-07-04T09:10:35.083Z,3.50
2018-07-04T09:13:14.794Z,3.00
2018-07-04T09:15:54.282Z,3.40
2018-07-04T09:18:33.871Z,3.08
2018-07-04T09:21:13.457Z,3.58
2018-07-04T09:23:53.158Z,3.60
2018-07-04T09:26:32.810Z,3.30
2018-07-04T09:29:12.328Z,3.95
2018-07-04T09:31:51.990Z,3.75
2018-07-04T09:34:31.635Z,3.62
2018-07-04T09:37:11.156Z,3.98
2018-07-04T09:39:51.014Z,3.75
2018-07-04T09:42:30.692Z,3.60
2018-07-04T09:45:10.335Z,3.75
2018-07-04T09:47:50.004Z,3.70
2018-07-04T09:50:29.734Z,3.52
2018-07-04T09:53:09.510Z,2.95
2018-07-04T09:55:49.054Z,3.35
2018-07-04T09:58:28.758Z,3.70
2018-07-04T10:01:13.983Z,3.60
2018-07-04T10:03:53.538Z,4.30
2018-07-04T10:06:33.386Z,3.30
2018-07-04T10:09:13.030Z,3.60
2018-07-04T10:11:53.198Z,3.52
2018-07-04T10:14:32.835Z,3.45
2018-07-04T10:17:12.575Z,3.08
2018-07-04T10:19:52.256Z,3.40
2018-07-04T10:22:32.286Z,2.95
2018-07-04T10:25:11.819Z,3.70
2018-07-04T10:27:51.414Z,3.37
2018-07-04T10:30:25.050Z,3.58
2018-07-04T10:33:04.706Z,3.40
2018-07-04T10:35:44.390Z,3.70
2018-07-04T10:38:24.216Z,3.58
2018-07-04T10:41:03.761Z,3.22
2018-07-04T10:43:43.443Z,3.75
2018-07-04T10:46:23.100Z,3.27
2018-07-04T10:49:02.626Z,3.22
2018-07-04T10:51:42.162Z,3.30
2018-07-04T10:54:21.765Z,3.27
2018-07-04T10:57:01.489Z,3.35
2018-07-04T10:59:41.058Z,2.52
2018-07-04T11:02:20.698Z,2.90
2018-07-04T11:05:00.785Z,3.05
2018-07-04T11:07:40.506Z,2.83
2018-07-04T11:10:20.019Z,2.60
2018-07-04T11:12:59.670Z,3.35
2018-07-04T11:15:39.316Z,3.10
2018-07-04T11:18:19.047Z,2.83
2018-07-04T11:20:58.594Z,3.17
2018-07-04T11:23:38.025Z,2.98
2018-07-04T11:26:17.678Z,3.22
2018-07-04T11:28:57.202Z,3.30
2018-07-04T11:31:37.045Z,2.98
2018-07-04T11:34:16.878Z,3.02
2018-07-04T11:36:56.571Z,3.52
2018-07-04T11:39:36.103Z,3.00
2018-07-04T11:42:15.613Z,3.20
2018-07-04T11:44:55.307Z,2.72
2018-07-04T11:47:22.463Z,3.65
2018-07-04T11:49:49.606Z,3.85
2018-07-04T11:52:16.829Z,3.27
2018-07-04T11:54:43.955Z,3.65
2018-07-04T11:57:11.164Z,3.42
2018-07-04T11:59:38.254Z,3.20
2018-07-04T12:02:05.399Z,3.47
2018-07-04T12:04:45.166Z,2.92
2018-07-04T12:07:12.314Z,3.30
2018-07-04T12:09:40.132Z,2.83
2018-07-04T12:12:08.119Z,3.42
2018-07-04T12:14:35.279Z,3.75
2018-07-04T12:17:02.759Z,3.70
2018-07-04T12:19:29.958Z,3.17
2018-07-04T12:21:57.108Z,3.22
2018-07-04T12:24:24.258Z,3.10
2018-07-04T12:26:51.460Z,3.10
2018-07-04T12:29:18.630Z,4.08
2018-07-04T12:31:45.782Z,3.37
2018-07-04T12:34:12.939Z,3.12
2018-07-04T12:36:40.170Z,3.10
2018-07-04T12:39:07.306Z,3.22
2018-07-04T12:41:34.456Z,3.50
2018-07-04T12:44:01.607Z,3.05
2018-07-04T12:46:29.200Z,2.98
2018-07-04T12:49:03.626Z,3.00
2018-07-04T12:51:32.355Z,2.83
2018-07-04T12:54:05.099Z,3.33
2018-07-04T12:56:45.382Z,2.42
2018-07-04T12:59:25.294Z,2.50
2018-07-04T13:02:05.253Z,3.02
2018-07-04T13:04:45.407Z,2.77
2018-07-04T13:07:25.654Z,3.15
2018-07-04T13:10:05.790Z,2.98
2018-07-04T13:12:45.322Z,2.72
2018-07-04T13:15:25.383Z,2.83
2018-07-04T13:18:04.998Z,2.85
2018-07-04T13:20:44.631Z,3.40
2018-07-04T13:23:24.152Z,2.98
2018-07-04T13:26:03.915Z,3.37
2018-07-04T13:28:43.556Z,3.27
2018-07-04T13:31:23.082Z,3.23
2018-07-04T13:34:02.777Z,3.37
2018-07-04T13:36:44.348Z,2.90
2018-07-04T13:39:24.558Z,3.33
2018-07-04T13:42:04.475Z,2.75
2018-07-04T13:44:44.435Z,3.25
2018-07-04T13:47:24.062Z,3.27
2018-07-04T13:50:04.131Z,2.85
2018-07-04T13:52:43.438Z,3.35
2018-07-04T13:55:23.137Z,3.52
2018-07-04T13:58:04.074Z,3.00
2018-07-04T14:00:43.730Z,3.30
2018-07-04T14:03:24.444Z,2.95
2018-07-04T14:06:04.125Z,3.20
2018-07-04T14:08:43.804Z,2.87
2018-07-04T14:11:23.516Z,2.90
2018-07-04T14:14:03.567Z,2.42
2018-07-04T14:16:43.625Z,2.80
2018-07-04T14:19:23.260Z,3.02
2018-07-04T14:22:03.428Z,3.15
2018-07-04T14:24:46.791Z,2.58
2018-07-04T14:27:26.627Z,2.62
2018-07-04T14:30:06.453Z,2.45
2018-07-04T14:32:46.149Z,2.37
2018-07-04T14:35:25.905Z,2.35
2018-07-04T14:38:05.626Z,2.52
2018-07-04T14:40:45.311Z,2.62
2018-07-04T14:43:25.417Z,2.27
2018-07-04T14:46:06.246Z,2.20
2018-07-04T14:48:45.950Z,2.33
2018-07-04T14:51:27.439Z,2.17
2018-07-04T14:54:07.033Z,2.45
2018-07-04T14:56:47.173Z,2.15
2018-07-04T14:59:26.839Z,2.08
2018-07-04T15:02:06.979Z,1.90
2018-07-04T15:04:46.483Z,2.00
2018-07-04T15:07:27.910Z,2.98
2018-07-04T15:10:07.714Z,2.25
2018-07-04T15:12:41.674Z,1.92
2018-07-04T15:15:21.163Z,2.22
2018-07-04T15:18:02.522Z,1.98
2018-07-04T15:20:42.119Z,1.80
2018-07-04T15:23:21.786Z,1.80
2018-07-04T15:26:01.310Z,2.22
2018-07-04T15:28:41.067Z,1.80
2018-07-04T15:31:20.946Z,2.10
2018-07-04T15:33:54.570Z,2.27
2018-07-04T15:36:34.393Z,2.15
2018-07-04T15:39:14.203Z,1.70
2018-07-04T15:41:53.852Z,1.55
2018-07-04T15:44:33.288Z,2.25
2018-07-04T15:47:13.024Z,1.77
2018-07-04T15:49:52.701Z,2.15
2018-07-04T15:52:32.785Z,1.98
2018-07-04T15:55:14.546Z,1.87
2018-07-04T15:57:54.353Z,1.92
2018-07-04T16:00:33.795Z,2.20
2018-07-04T16:03:13.831Z,2.02
2018-07-04T16:05:53.786Z,1.70
2018-07-04T16:08:42.637Z,1.77
2018-07-04T16:11:23.295Z,2.30
2018-07-04T16:14:02.963Z,2.45
2018-07-04T16:16:43.668Z,2.10
2018-07-04T16:19:23.283Z,1.75
2018-07-04T16:22:03.392Z,1.90
2018-07-04T16:24:42.881Z,1.98
2018-07-04T16:27:24.891Z,2.25
2018-07-04T16:30:06.036Z,2.00
2018-07-04T16:32:46.817Z,1.90
2018-07-04T16:35:27.063Z,2.10
2018-07-04T16:38:08.694Z,1.80
2018-07-04T16:40:50.172Z,1.67
2018-07-04T16:43:30.671Z,1.98
2018-07-04T16:46:10.223Z,1.70
2018-07-04T16:48:51.414Z,2.05
2018-07-04T16:51:32.429Z,2.10
2018-07-04T16:54:12.571Z,1.98
2018-07-04T16:56:52.564Z,1.67
2018-07-04T16:59:33.286Z,1.67
2018-07-04T17:02:16.191Z,2.02
2018-07-04T17:04:55.835Z,1.80
2018-07-04T17:07:35.770Z,1.90
2018-07-04T17:10:15.308Z,1.65
2018-07-04T17:12:54.882Z,1.87
2018-07-04T17:15:34.788Z,1.80
2018-07-04T17:18:14.527Z,1.95
2018-07-04T17:20:54.248Z,1.70
2018-07-04T17:23:33.915Z,2.20
2018-07-04T17:26:14.074Z,1.90
2018-07-04T17:28:53.647Z,2.00
2018-07-04T17:31:33.605Z,1.50
2018-07-04T17:34:13.186Z,1.90
2018-07-04T17:36:52.792Z,2.45
2018-07-04T17:39:32.474Z,1.60
2018-07-04T17:42:12.583Z,1.82
2018-07-04T17:44:52.140Z,2.05
2018-07-04T17:47:31.826Z,1.40
2018-07-04T17:50:11.476Z,1.62
2018-07-04T17:52:54.570Z,1.82
2018-07-04T17:55:35.087Z,1.80
2018-07-04T17:58:14.610Z,1.72
2018-07-04T18:00:54.218Z,1.82
2018-07-04T18:03:35.301Z,1.55
2018-07-04T18:06:15.265Z,1.67
2018-07-04T18:08:56.004Z,1.45
2018-07-04T18:11:35.603Z,1.55
2018-07-04T18:14:09.461Z,1.80
2018-07-04T18:16:49.391Z,1.65
2018-07-04T18:19:30.377Z,1.52
2018-07-04T18:22:09.889Z,1.52
2018-07-04T18:24:49.570Z,1.40
2018-07-04T18:27:28.932Z,1.62
2018-07-04T18:30:08.667Z,1.30
2018-07-04T18:32:48.393Z,1.47
2018-07-04T18:35:28.243Z,1.17
2018-07-04T18:38:07.945Z,1.22
2018-07-04T18:40:47.520Z,1.17
2018-07-04T18:43:27.030Z,1.10
2018-07-04T18:46:06.555Z,1.30
2018-07-04T18:48:46.494Z,1.42
2018-07-04T18:51:26.106Z,1.10
2018-07-04T18:54:05.623Z,1.00
2018-07-04T18:56:45.147Z,1.22
2018-07-04T18:59:24.715Z,1.20
2018-07-04T19:02:04.326Z,1.30
2018-07-04T19:04:44.230Z,1.50
2018-07-04T19:07:25.699Z,1.20
2018-07-04T19:10:07.489Z,1.27
2018-07-04T19:12:47.335Z,1.75
2018-07-04T19:15:28.002Z,1.20
2018-07-04T19:18:07.536Z,1.75
2018-07-04T19:20:48.539Z,1.30
2018-07-04T19:23:28.563Z,1.40
2018-07-04T19:26:08.135Z,1.65
2018-07-04T19:28:47.904Z,1.80
2018-07-04T19:31:27.920Z,1.80
2018-07-04T19:34:07.451Z,1.35
2018-07-04T19:36:49.210Z,1.65
2018-07-04T19:39:29.191Z,1.95
2018-07-04T19:42:09.717Z,1.80
2018-07-04T19:44:50.040Z,2.00
2018-07-04T19:47:29.762Z,2.02
2018-07-04T19:50:10.563Z,1.72
2018-07-04T19:52:50.026Z,1.98
2018-07-04T19:55:29.795Z,2.08
2018-07-04T19:58:09.441Z,2.22
2018-07-04T20:00:49.131Z,1.70
2018-07-04T20:03:28.844Z,1.90
2018-07-04T20:06:08.660Z,1.87
2018-07-04T20:08:48.279Z,2.08
2018-07-04T20:11:28.206Z,1.40
2018-07-04T20:14:10.532Z,1.77
2018-07-04T20:16:50.837Z,1.73
2018-07-04T20:19:32.452Z,1.90
2018-07-04T20:22:14.688Z,1.80
2018-07-04T20:24:55.322Z,1.70
2018-07-04T20:27:35.995Z,1.92
2018-07-04T20:30:15.637Z,2.25
2018-07-04T20:32:55.520Z,2.10
2018-07-04T20:35:35.127Z,1.80
2018-07-04T20:38:14.701Z,1.80
2018-07-04T20:40:54.281Z,1.50
2018-07-04T20:43:27.926Z,2.00
2018-07-04T20:46:07.350Z,1.90
2018-07-04T20:48:47.247Z,1.55
2018-07-04T20:51:26.795Z,1.52
2018-07-04T20:54:06.383Z,1.82
2018-07-04T20:56:48.466Z,1.72
2018-07-04T20:59:30.180Z,1.65
2018-07-04T21:02:09.747Z,1.98
2018-07-04T21:04:49.670Z,1.27
2018-07-04T21:07:29.403Z,1.35
2018-07-04T21:10:09.376Z,1.40
2018-07-04T21:12:49.013Z,1.62
2018-07-04T21:15:28.450Z,2.10
2018-07-04T21:18:08.195Z,1.22
2018-07-04T21:20:47.726Z,1.60
2018-07-04T21:23:27.302Z,1.77
2018-07-04T21:26:07.246Z,1.37
2018-07-04T21:28:46.962Z,1.47
2018-07-04T21:31:26.718Z,1.45
2018-07-04T21:34:06.419Z,1.30
2018-07-04T21:36:46.114Z,1.57
2018-07-04T21:39:25.744Z,1.52
2018-07-04T21:42:05.506Z,1.40
2018-07-04T21:44:45.146Z,1.52
2018-07-04T21:47:24.685Z,1.40
2018-07-04T21:50:04.243Z,1.25
2018-07-04T21:52:43.871Z,1.40
2018-07-04T21:55:23.358Z,1.62
2018-07-04T21:58:03.491Z,1.75
2018-07-04T22:00:43.090Z,1.60
2018-07-04T22:03:22.668Z,2.05
2018-07-04T22:06:02.278Z,2.17
2018-07-04T22:08:42.026Z,2.25
2018-07-04T22:11:21.452Z,2.42
2018-07-04T22:14:01.171Z,2.30
2018-07-04T22:16:40.798Z,2.80
2018-07-04T22:19:20.289Z,2.33
2018-07-04T22:21:59.942Z,2.40
2018-07-04T22:24:39.761Z,2.60
2018-07-04T22:27:19.371Z,2.40
2018-07-04T22:29:58.926Z,2.35
2018-07-04T22:32:38.618Z,2.15
2018-07-04T22:35:18.466Z,2.42
2018-07-04T22:37:58.150Z,2.35
2018-07-04T22:40:37.731Z,2.20
2018-07-04T22:43:17.426Z,2.40
2018-07-04T22:45:57.254Z,2.30
2018-07-04T22:48:36.929Z,2.62
2018-07-04T22:51:16.515Z,2.60
2018-07-04T22:53:56.264Z,2.95
2018-07-04T22:56:36.043Z,2.42
2018-07-04T22:59:15.708Z,2.20
2018-07-04T23:01:55.253Z,2.70
2018-07-04T23:04:34.868Z,2.10
2018-07-04T23:07:14.699Z,2.65
2018-07-04T23:09:54.371Z,2.35
2018-07-04T23:12:34.183Z,2.30
2018-07-04T23:15:13.817Z,2.30
2018-07-04T23:17:53.803Z,2.50
2018-07-04T23:20:33.483Z,2.20
2018-07-04T23:23:13.162Z,2.50
2018-07-04T23:25:52.758Z,2.17
2018-07-04T23:28:32.755Z,1.97
2018-07-04T23:31:12.358Z,2.40
2018-07-04T23:33:51.933Z,2.27
2018-07-04T23:36:31.504Z,2.50
2018-07-04T23:39:11.222Z,2.30
2018-07-04T23:41:50.594Z,2.27
2018-07-04T23:44:30.199Z,2.57
2018-07-04T23:47:09.565Z,2.40
2018-07-04T23:49:49.490Z,2.30
2018-07-04T23:52:28.909Z,2.20
2018-07-04T23:55:02.422Z,2.40
2018-07-04T23:57:42.183Z,2.17
